createdAt,value
2018-06-18T00:00:06.295Z,59.20
2018-06-18T00:01:08.581Z,59.40
2018-06-18T00:02:11.098Z,59.30
2018-06-18T00:03:08.134Z,59.40
2018-06-18T00:04:05.631Z,59.40
2018-06-18T00:05:11.425Z,59.40
2018-06-18T00:06:05.956Z,59.40
2018-06-18T00:07:06.117Z,59.40
2018-06-18T00:08:10.837Z,59.50
2018-06-18T00:09:06.018Z,59.40
2018-06-18T00:10:08.225Z,59.50
2018-06-18T00:11:05.925Z,59.50
2018-06-18T00:12:06.683Z,59.50
2018-06-18T00:13:11.341Z,59.50
2018-06-18T00:14:06.709Z,59.50
2018-06-18T00:15:08.974Z,59.60
2018-06-18T00:16:06.079Z,59.60
2018-06-18T00:17:05.868Z,59.50
2018-06-18T00:18:10.587Z,59.70
2018-06-18T00:19:08.518Z,59.80
2018-06-18T00:20:08.721Z,59.70
2018-06-18T00:21:06.202Z,59.70
2018-06-18T00:22:10.991Z,59.70
2018-06-18T00:23:11.591Z,60.00
2018-06-18T00:24:06.271Z,59.90
2018-06-18T00:25:05.904Z,60.00
2018-06-18T00:26:08.386Z,60.20
2018-06-18T00:27:05.891Z,60.20
2018-06-18T00:28:10.644Z,60.40
2018-06-18T00:29:06.433Z,60.40
2018-06-18T00:30:06.221Z,60.40
2018-06-18T00:31:06.321Z,60.10
2018-06-18T00:32:08.468Z,60.10
2018-06-18T00:33:10.505Z,60.10
2018-06-18T00:34:05.938Z,60.30
2018-06-18T00:35:05.758Z,60.70
2018-06-18T00:36:10.821Z,60.90
2018-06-18T00:37:06.745Z,60.70
2018-06-18T00:38:08.900Z,60.70
2018-06-18T00:39:06.379Z,60.70
2018-06-18T00:40:10.944Z,60.70
2018-06-18T00:41:06.424Z,60.70
2018-06-18T00:42:08.433Z,61.10
2018-06-18T00:43:07.003Z,61.10
2018-06-18T00:44:10.694Z,61.10
2018-06-18T00:45:06.297Z,61.10
2018-06-18T00:46:08.443Z,61.10
2018-06-18T00:47:05.978Z,61.10
2018-06-18T00:48:06.041Z,61.20
2018-06-18T00:49:08.218Z,61.40
2018-06-18T00:50:06.146Z,61.40
2018-06-18T00:51:08.343Z,61.60
2018-06-18T00:52:05.861Z,61.70
2018-06-18T00:53:08.055Z,61.70
2018-06-18T00:54:08.151Z,61.70
2018-06-18T00:55:10.547Z,61.70
2018-06-18T00:56:05.997Z,61.90
2018-06-18T00:57:08.120Z,62.20
2018-06-18T00:58:05.984Z,62.20
2018-06-18T00:59:06.156Z,62.50
2018-06-18T01:00:05.928Z,62.70
2018-06-18T01:01:10.555Z,62.80
2018-06-18T01:02:06.994Z,62.70
2018-06-18T01:03:08.082Z,62.80
2018-06-18T01:04:10.542Z,62.80
2018-06-18T01:05:08.481Z,63.30
2018-06-18T01:06:06.311Z,63.20
2018-06-18T01:07:06.501Z,63.30
2018-06-18T01:08:06.359Z,63.40
2018-06-18T01:09:11.417Z,63.10
2018-06-18T01:10:06.171Z,63.30
2018-06-18T01:11:05.845Z,63.30
2018-06-18T01:12:09.032Z,63.90
2018-06-18T01:13:06.246Z,63.70
2018-06-18T01:14:06.123Z,63.80
2018-06-18T01:15:05.855Z,63.90
2018-06-18T01:16:05.657Z,63.90
2018-06-18T01:17:06.850Z,63.90
2018-06-18T01:18:05.495Z,63.90
2018-06-18T01:19:06.166Z,64.00
2018-06-18T01:20:08.380Z,63.90
2018-06-18T01:21:08.599Z,64.10
2018-06-18T01:22:06.192Z,64.10
2018-06-18T01:23:10.702Z,64.10
2018-06-18T01:24:05.590Z,64.10
2018-06-18T01:25:06.289Z,64.00
2018-06-18T01:26:08.435Z,63.80
2018-06-18T01:27:08.507Z,63.70
2018-06-18T01:28:11.099Z,63.70
2018-06-18T01:29:05.913Z,63.70
2018-06-18T01:30:05.763Z,63.70
2018-06-18T01:31:06.465Z,63.60
2018-06-18T01:32:08.067Z,64.00
2018-06-18T01:33:05.718Z,63.90
2018-06-18T01:34:10.874Z,64.30
2018-06-18T01:35:08.583Z,64.70
2018-06-18T01:36:06.146Z,64.70
2018-06-18T01:37:05.838Z,64.80
2018-06-18T01:38:05.579Z,65.40
2018-06-18T01:39:08.649Z,65.60
2018-06-18T01:40:06.138Z,65.60
2018-06-18T01:41:10.924Z,65.60
2018-06-18T01:42:05.823Z,65.90
2018-06-18T01:43:06.871Z,66.10
2018-06-18T01:44:08.034Z,66.10
2018-06-18T01:45:08.029Z,66.10
2018-06-18T01:46:10.441Z,66.10
2018-06-18T01:47:08.433Z,66.30
2018-06-18T01:48:06.000Z,66.30
2018-06-18T01:49:13.563Z,66.60
2018-06-18T01:50:08.585Z,66.80
2018-06-18T01:51:06.096Z,66.80
2018-06-18T01:52:06.023Z,66.90
2018-06-18T01:53:05.968Z,66.90
2018-06-18T01:54:10.592Z,67.80
2018-06-18T01:55:15.916Z,67.60
2018-06-18T01:56:05.685Z,67.70
2018-06-18T01:57:06.028Z,67.60
2018-06-18T01:58:10.752Z,67.90
2018-06-18T01:59:11.389Z,68.40
2018-06-18T02:00:10.910Z,68.40
2018-06-18T02:01:06.269Z,68.30
2018-06-18T02:02:06.446Z,68.30
2018-06-18T02:03:08.873Z,68.20
2018-06-18T02:04:06.578Z,68.30
2018-06-18T02:05:06.370Z,68.30
2018-06-18T02:06:06.373Z,68.30
2018-06-18T02:07:08.703Z,68.50
2018-06-18T02:08:06.589Z,68.50
2018-06-18T02:09:08.749Z,68.50
2018-06-18T02:10:06.208Z,68.50
2018-06-18T02:11:05.874Z,68.60
2018-06-18T02:12:05.739Z,68.70
2018-06-18T02:13:11.336Z,68.80
2018-06-18T02:14:05.659Z,68.70
2018-06-18T02:15:06.462Z,68.70
2018-06-18T02:16:12.406Z,69.00
2018-06-18T02:17:07.125Z,69.20
2018-06-18T02:18:06.013Z,69.10
2018-06-18T02:19:08.231Z,69.40
2018-06-18T02:20:13.358Z,69.40
2018-06-18T02:21:08.376Z,69.50
2018-06-18T02:22:06.119Z,69.50
2018-06-18T02:23:05.543Z,69.40
2018-06-18T02:24:07.391Z,69.40
2018-06-18T02:25:08.798Z,69.60
2018-06-18T02:26:06.320Z,69.60
2018-06-18T02:27:10.927Z,69.70
2018-06-18T02:28:06.348Z,69.60
2018-06-18T02:29:06.188Z,69.70
2018-06-18T02:30:08.421Z,70.20
2018-06-18T02:31:06.393Z,70.20
2018-06-18T02:32:08.836Z,70.30
2018-06-18T02:33:06.655Z,70.30
2018-06-18T02:34:08.885Z,70.40
2018-06-18T02:35:06.497Z,70.40
2018-06-18T02:36:06.154Z,70.50
2018-06-18T02:37:08.889Z,70.60
2018-06-18T02:38:16.314Z,70.60
2018-06-18T02:39:06.067Z,70.40
2018-06-18T02:40:08.185Z,70.60
2018-06-18T02:41:08.190Z,70.70
2018-06-18T02:42:05.656Z,70.70
2018-06-18T02:43:06.698Z,70.60
2018-06-18T02:44:09.667Z,70.80
2018-06-18T02:45:06.218Z,70.80
2018-06-18T02:46:06.023Z,70.80
2018-06-18T02:47:11.099Z,71.20
2018-06-18T02:48:05.951Z,71.20
2018-06-18T02:49:05.564Z,71.10
2018-06-18T02:50:08.701Z,71.20
2018-06-18T02:51:11.161Z,71.10
2018-06-18T02:52:05.733Z,71.20
2018-06-18T02:53:09.056Z,71.60
2018-06-18T02:54:08.614Z,71.60
2018-06-18T02:55:06.088Z,71.60
2018-06-18T02:56:10.910Z,71.70
2018-06-18T02:57:08.009Z,71.70
2018-06-18T02:58:06.635Z,71.70
2018-06-18T02:59:09.007Z,71.60
2018-06-18T03:00:05.725Z,71.60
2018-06-18T03:01:08.292Z,71.60
2018-06-18T03:02:05.723Z,71.70
2018-06-18T03:03:08.998Z,71.60
2018-06-18T03:04:06.257Z,71.60
2018-06-18T03:05:08.506Z,71.50
2018-06-18T03:06:06.043Z,71.50
2018-06-18T03:07:08.243Z,71.40
2018-06-18T03:08:06.033Z,71.40
2018-06-18T03:09:08.234Z,71.40
2018-06-18T03:10:08.286Z,71.20
2018-06-18T03:11:05.795Z,71.20
2018-06-18T03:12:09.314Z,71.20
2018-06-18T03:13:09.117Z,71.60
2018-06-18T03:14:08.369Z,71.40
2018-06-18T03:15:06.112Z,71.40
2018-06-18T03:16:06.237Z,71.40
2018-06-18T03:17:08.400Z,71.40
2018-06-18T03:18:08.508Z,71.40
2018-06-18T03:19:08.652Z,71.20
2018-06-18T03:20:06.709Z,71.20
2018-06-18T03:21:08.511Z,71.40
2018-06-18T03:22:08.552Z,71.50
2018-06-18T03:23:06.025Z,71.40
2018-06-18T03:24:06.026Z,71.40
2018-06-18T03:25:08.919Z,71.40
2018-06-18T03:26:09.019Z,71.60
2018-06-18T03:27:08.754Z,71.60
2018-06-18T03:28:06.278Z,71.60
2018-06-18T03:29:05.816Z,71.70
2018-06-18T03:30:06.553Z,71.70
2018-06-18T03:31:06.373Z,71.90
2018-06-18T03:32:11.257Z,72.10
2018-06-18T03:33:06.212Z,72.10
2018-06-18T03:34:05.897Z,72.00
2018-06-18T03:35:05.917Z,72.00
2018-06-18T03:36:08.138Z,71.90
2018-06-18T03:37:05.714Z,71.90
2018-06-18T03:38:10.564Z,71.90
2018-06-18T03:39:06.489Z,71.80
2018-06-18T03:40:06.083Z,71.90
2018-06-18T03:41:05.804Z,71.90
2018-06-18T03:42:05.806Z,71.80
2018-06-18T03:43:06.363Z,71.70
2018-06-18T03:44:06.097Z,71.70
2018-06-18T03:45:06.415Z,71.70
2018-06-18T03:46:06.678Z,71.70
2018-06-18T03:47:07.057Z,71.60
2018-06-18T03:48:08.157Z,71.50
2018-06-18T03:49:05.879Z,71.50
2018-06-18T03:50:05.638Z,71.40
2018-06-18T03:51:08.920Z,71.30
2018-06-18T03:52:06.597Z,71.30
2018-06-18T03:53:06.313Z,71.20
2018-06-18T03:54:06.070Z,71.20
2018-06-18T03:55:08.304Z,71.00
2018-06-18T03:56:05.949Z,71.00
2018-06-18T03:57:06.046Z,70.90
2018-06-18T03:58:08.245Z,71.20
2018-06-18T03:59:05.769Z,71.20
2018-06-18T04:00:10.821Z,71.10
2018-06-18T04:01:06.485Z,71.10
2018-06-18T04:02:06.057Z,71.10
2018-06-18T04:03:05.690Z,71.10
2018-06-18T04:04:12.458Z,71.00
2018-06-18T04:05:06.407Z,70.90
2018-06-18T04:06:08.647Z,70.70
2018-06-18T04:07:08.624Z,70.60
2018-06-18T04:08:06.161Z,70.60
2018-06-18T04:09:06.932Z,70.50
2018-06-18T04:10:05.956Z,70.40
2018-06-18T04:11:10.698Z,70.30
2018-06-18T04:12:11.323Z,70.30
2018-06-18T04:13:08.312Z,70.20
2018-06-18T04:14:06.054Z,70.20
2018-06-18T04:15:05.853Z,70.10
2018-06-18T04:16:06.119Z,70.10
2018-06-18T04:17:08.757Z,70.10
2018-06-18T04:18:06.429Z,70.10
2018-06-18T04:19:06.007Z,70.20
2018-06-18T04:20:05.943Z,70.10
2018-06-18T04:21:05.542Z,70.00
2018-06-18T04:22:08.995Z,69.90
2018-06-18T04:23:05.581Z,69.90
2018-06-18T04:24:11.360Z,69.90
2018-06-18T04:25:07.131Z,69.90
2018-06-18T04:26:11.100Z,70.00
2018-06-18T04:27:13.117Z,70.00
2018-06-18T04:28:08.285Z,70.20
2018-06-18T04:29:08.201Z,70.50
2018-06-18T04:30:06.358Z,70.50
2018-06-18T04:31:08.678Z,71.20
2018-06-18T04:32:05.574Z,71.30
2018-06-18T04:33:08.864Z,71.10
2018-06-18T04:34:11.465Z,71.00
2018-06-18T04:35:05.911Z,71.00
2018-06-18T04:36:06.148Z,70.40
2018-06-18T04:37:05.902Z,69.80
2018-06-18T04:38:08.223Z,68.60
2018-06-18T04:39:08.269Z,67.80
2018-06-18T04:40:05.867Z,67.80
2018-06-18T04:41:08.425Z,66.70
2018-06-18T04:42:11.222Z,66.70
2018-06-18T04:43:06.248Z,66.00
2018-06-18T04:44:08.229Z,64.00
2018-06-18T04:45:08.213Z,63.30
2018-06-18T04:46:05.720Z,63.30
2018-06-18T04:47:07.579Z,62.00
2018-06-18T04:48:11.248Z,60.50
2018-06-18T04:49:05.803Z,59.70
2018-06-18T04:50:10.890Z,58.70
2018-06-18T04:51:06.349Z,58.70
2018-06-18T04:52:05.959Z,58.00
2018-06-18T04:53:05.755Z,57.20
2018-06-18T04:54:06.608Z,56.80
2018-06-18T04:55:06.257Z,56.50
2018-06-18T04:56:05.931Z,56.40
2018-06-18T04:57:06.246Z,56.50
2018-06-18T04:58:08.363Z,56.60
2018-06-18T04:59:06.442Z,56.60
2018-06-18T05:00:11.110Z,56.70
2018-06-18T05:01:06.495Z,56.40
2018-06-18T05:02:06.023Z,56.40
2018-06-18T05:03:08.113Z,56.70
2018-06-18T05:04:06.050Z,56.60
2018-06-18T05:05:06.306Z,56.80
2018-06-18T05:06:08.509Z,57.30
2018-06-18T05:07:10.934Z,57.20
2018-06-18T05:08:08.811Z,57.50
2018-06-18T05:09:06.645Z,57.50
2018-06-18T05:10:11.775Z,57.50
2018-06-18T05:11:10.665Z,57.50
2018-06-18T05:12:13.213Z,57.70
2018-06-18T05:13:06.147Z,57.70
2018-06-18T05:14:13.449Z,57.80
2018-06-18T05:15:11.144Z,57.80
2018-06-18T05:16:06.067Z,57.90
2018-06-18T05:17:10.953Z,58.30
2018-06-18T05:18:05.599Z,58.30
2018-06-18T05:19:11.237Z,58.40
2018-06-18T05:20:08.673Z,58.80
2018-06-18T05:21:11.377Z,59.00
2018-06-18T05:22:06.143Z,59.00
2018-06-18T05:23:06.125Z,59.10
2018-06-18T05:24:05.784Z,59.20
2018-06-18T05:25:05.931Z,59.20
2018-06-18T05:26:08.027Z,59.40
2018-06-18T05:27:10.543Z,59.50
2018-06-18T05:28:06.251Z,59.50
2018-06-18T05:29:06.441Z,59.50
2018-06-18T05:30:05.878Z,59.50
2018-06-18T05:31:06.198Z,59.60
2018-06-18T05:32:08.985Z,59.60
2018-06-18T05:33:08.103Z,59.60
2018-06-18T05:34:05.845Z,59.80
2018-06-18T05:35:08.183Z,59.90
2018-06-18T05:36:10.673Z,59.80
2018-06-18T05:37:06.377Z,59.70
2018-06-18T05:38:06.171Z,59.90
2018-06-18T05:39:06.265Z,59.90
2018-06-18T05:40:06.317Z,60.00
2018-06-18T05:41:11.218Z,60.10
2018-06-18T05:42:11.097Z,60.10
2018-06-18T05:43:05.827Z,60.00
2018-06-18T05:44:05.630Z,59.90
2018-06-18T05:45:08.839Z,59.50
2018-06-18T05:46:11.435Z,59.20
2018-06-18T05:47:08.466Z,59.20
2018-06-18T05:48:05.961Z,59.10
2018-06-18T05:49:08.039Z,59.10
2018-06-18T05:50:06.592Z,59.00
2018-06-18T05:51:10.900Z,58.80
2018-06-18T05:52:11.151Z,58.80
2018-06-18T05:53:05.569Z,58.70
2018-06-18T05:54:08.708Z,58.70
2018-06-18T05:55:06.451Z,58.70
2018-06-18T05:56:06.927Z,58.40
2018-06-18T05:57:05.962Z,58.30
2018-06-18T05:58:08.070Z,57.70
2018-06-18T05:59:05.674Z,57.70
2018-06-18T06:00:06.338Z,57.60
2018-06-18T06:01:11.157Z,58.00
2018-06-18T06:02:06.132Z,58.20
2018-06-18T06:03:06.052Z,58.50
2018-06-18T06:04:06.491Z,58.30
2018-06-18T06:05:06.648Z,58.50
2018-06-18T06:06:06.609Z,58.40
2018-06-18T06:07:06.812Z,58.10
2018-06-18T06:08:09.150Z,57.70
2018-06-18T06:09:05.957Z,57.60
2018-06-18T06:10:05.996Z,57.60
2018-06-18T06:11:08.376Z,57.70
2018-06-18T06:12:08.542Z,57.70
2018-06-18T06:13:05.790Z,57.80
2018-06-18T06:14:10.848Z,57.70
2018-06-18T06:15:06.704Z,57.70
2018-06-18T06:16:06.645Z,57.70
2018-06-18T06:17:08.794Z,57.90
2018-06-18T06:18:06.279Z,57.90
2018-06-18T06:19:06.455Z,57.80
2018-06-18T06:20:11.223Z,57.70
2018-06-18T06:21:06.081Z,57.60
2018-06-18T06:22:05.780Z,57.70
2018-06-18T06:23:06.777Z,57.70
2018-06-18T06:24:06.619Z,57.40
2018-06-18T06:25:06.438Z,57.30
2018-06-18T06:26:06.136Z,57.00
2018-06-18T06:27:06.096Z,56.90
2018-06-18T06:28:09.337Z,56.90
2018-06-18T06:29:10.859Z,56.90
2018-06-18T06:30:06.499Z,57.00
2018-06-18T06:31:08.838Z,56.80
2018-06-18T06:32:06.431Z,56.80
2018-06-18T06:33:08.667Z,56.80
2018-06-18T06:34:07.468Z,56.80
2018-06-18T06:35:06.030Z,56.80
2018-06-18T06:36:06.236Z,56.90
2018-06-18T06:37:05.403Z,56.90
2018-06-18T06:38:08.393Z,56.70
2018-06-18T06:39:06.265Z,56.70
2018-06-18T06:40:05.709Z,56.60
2018-06-18T06:41:06.643Z,56.60
2018-06-18T06:42:06.719Z,56.10
2018-06-18T06:43:08.914Z,54.60
2018-06-18T06:44:06.587Z,54.60
2018-06-18T06:45:06.160Z,54.80
2018-06-18T06:46:08.288Z,55.20
2018-06-18T06:47:06.262Z,55.20
2018-06-18T06:48:10.953Z,54.70
2018-06-18T06:49:11.526Z,54.20
2018-06-18T06:50:08.974Z,54.30
2018-06-18T06:51:06.449Z,54.30
2018-06-18T06:52:06.577Z,54.30
2018-06-18T06:53:06.153Z,52.60
2018-06-18T06:54:08.308Z,52.80
2018-06-18T06:55:06.308Z,52.80
2018-06-18T06:56:06.106Z,52.40
2018-06-18T06:57:05.755Z,51.20
2018-06-18T06:58:08.267Z,50.40
2018-06-18T06:59:05.921Z,50.40
2018-06-18T07:00:08.140Z,49.00
2018-06-18T07:01:06.107Z,49.00
2018-06-18T07:02:11.499Z,48.00
2018-06-18T07:03:06.076Z,47.60
2018-06-18T07:04:05.760Z,47.90
2018-06-18T07:05:06.412Z,47.10
2018-06-18T07:06:05.934Z,46.60
2018-06-18T07:07:05.510Z,45.70
2018-06-18T07:08:08.689Z,46.00
2018-06-18T07:09:06.611Z,45.90
2018-06-18T07:10:08.938Z,44.80
2018-06-18T07:11:09.000Z,45.20
2018-06-18T07:12:06.089Z,45.20
2018-06-18T07:13:06.058Z,45.00
2018-06-18T07:14:06.343Z,44.70
2018-06-18T07:15:06.279Z,45.00
2018-06-18T07:16:06.010Z,45.00
2018-06-18T07:17:05.753Z,45.30
2018-06-18T07:18:06.604Z,45.40
2018-06-18T07:19:05.733Z,45.40
2018-06-18T07:20:06.539Z,45.20
2018-06-18T07:21:06.098Z,44.70
2018-06-18T07:22:10.830Z,45.30
2018-06-18T07:23:06.353Z,45.30
2018-06-18T07:24:10.641Z,45.80
2018-06-18T07:25:06.420Z,45.80
2018-06-18T07:26:08.749Z,46.20
2018-06-18T07:27:08.327Z,46.50
2018-06-18T07:28:05.811Z,46.50
2018-06-18T07:29:06.451Z,46.70
2018-06-18T07:30:06.183Z,46.60
2018-06-18T07:31:07.285Z,46.60
2018-06-18T07:32:13.547Z,46.10
2018-06-18T07:33:06.116Z,46.10
2018-06-18T07:34:13.370Z,46.00
2018-06-18T07:35:10.996Z,46.00
2018-06-18T07:36:11.404Z,44.60
2018-06-18T07:37:06.332Z,44.50
2018-06-18T07:38:05.924Z,44.40
2018-06-18T07:39:06.065Z,45.20
2018-06-18T07:40:06.058Z,45.20
2018-06-18T07:41:07.961Z,44.90
2018-06-18T07:42:06.457Z,44.80
2018-06-18T07:43:06.383Z,44.00
2018-06-18T07:44:06.056Z,43.80
2018-06-18T07:45:08.108Z,43.00
2018-06-18T07:46:08.073Z,43.50
2018-06-18T07:47:10.709Z,43.90
2018-06-18T07:48:06.085Z,43.90
2018-06-18T07:49:05.973Z,43.70
2018-06-18T07:50:05.833Z,42.60
2018-06-18T07:51:06.385Z,43.10
2018-06-18T07:52:06.370Z,43.50
2018-06-18T07:53:08.647Z,44.10
2018-06-18T07:54:07.163Z,44.10
2018-06-18T07:55:05.660Z,44.00
2018-06-18T07:56:06.379Z,43.70
2018-06-18T07:57:10.738Z,43.90
2018-06-18T07:58:08.731Z,44.00
2018-06-18T07:59:06.217Z,44.00
2018-06-18T08:00:08.332Z,43.50
2018-06-18T08:01:08.357Z,42.70
2018-06-18T08:02:10.950Z,42.70
2018-06-18T08:03:08.895Z,42.50
2018-06-18T08:04:08.921Z,42.70
2018-06-18T08:05:09.091Z,43.40
2018-06-18T08:06:11.188Z,43.10
2018-06-18T08:07:08.680Z,43.10
2018-06-18T08:08:11.355Z,42.80
2018-06-18T08:09:08.353Z,42.00
2018-06-18T08:10:05.891Z,41.90
2018-06-18T08:11:05.652Z,41.80
2018-06-18T08:12:05.653Z,42.00
2018-06-18T08:13:08.924Z,41.20
2018-06-18T08:14:06.955Z,41.10
2018-06-18T08:15:05.741Z,40.80
2018-06-18T08:16:09.002Z,40.60
2018-06-18T08:17:06.009Z,40.50
2018-06-18T08:18:10.776Z,40.80
2018-06-18T08:19:08.881Z,41.50
2018-06-18T08:20:06.498Z,41.40
2018-06-18T08:21:11.304Z,42.20
2018-06-18T08:22:05.729Z,42.20
2018-06-18T08:23:08.126Z,41.90
2018-06-18T08:24:08.152Z,41.90
2018-06-18T08:25:10.785Z,41.80
2018-06-18T08:26:08.619Z,42.30
2018-06-18T08:27:08.676Z,42.50
2018-06-18T08:28:06.159Z,42.50
2018-06-18T08:29:06.260Z,42.20
2018-06-18T08:30:06.211Z,41.90
2018-06-18T08:31:08.378Z,41.30
2018-06-18T08:32:08.424Z,40.40
2018-06-18T08:33:06.010Z,40.30
2018-06-18T08:34:05.874Z,39.60
2018-06-18T08:35:10.591Z,39.50
2018-06-18T08:36:06.129Z,39.50
2018-06-18T08:37:10.767Z,39.60
2018-06-18T08:38:11.210Z,39.60
2018-06-18T08:39:06.447Z,39.30
2018-06-18T08:40:08.085Z,39.20
2018-06-18T08:41:05.676Z,39.20
2018-06-18T08:42:06.738Z,39.50
2018-06-18T08:43:09.221Z,39.80
2018-06-18T08:44:08.084Z,39.90
2018-06-18T08:45:10.589Z,39.90
2018-06-18T08:46:06.192Z,40.10
2018-06-18T08:47:05.894Z,40.20
2018-06-18T08:48:06.339Z,40.40
2018-06-18T08:49:11.321Z,40.90
2018-06-18T08:50:05.765Z,40.90
2018-06-18T08:51:09.001Z,41.40
2018-06-18T08:52:05.611Z,41.40
2018-06-18T08:53:08.875Z,41.60
2018-06-18T08:54:06.820Z,41.60
2018-06-18T08:55:11.105Z,41.30
2018-06-18T08:56:13.701Z,41.20
2018-06-18T08:57:11.345Z,41.20
2018-06-18T08:58:06.180Z,41.30
2018-06-18T08:59:11.163Z,40.90
2018-06-18T09:00:06.700Z,40.90
2018-06-18T09:01:05.875Z,41.10
2018-06-18T09:02:05.709Z,40.70
2018-06-18T09:03:11.668Z,41.20
2018-06-18T09:04:05.757Z,40.60
2018-06-18T09:05:05.660Z,40.60
2018-06-18T09:06:08.773Z,39.40
2018-06-18T09:07:11.335Z,39.10
2018-06-18T09:08:06.566Z,39.10
2018-06-18T09:09:06.428Z,39.40
2018-06-18T09:10:06.738Z,38.60
2018-06-18T09:11:06.784Z,38.50
2018-06-18T09:12:06.168Z,38.00
2018-06-18T09:13:05.573Z,37.70
2018-06-18T09:14:06.433Z,38.10
2018-06-18T09:15:06.138Z,37.70
2018-06-18T09:16:06.506Z,37.60
2018-06-18T09:17:06.912Z,37.80
2018-06-18T09:18:08.228Z,38.00
2018-06-18T09:19:08.394Z,36.90
2018-06-18T09:20:05.967Z,36.70
2018-06-18T09:21:05.672Z,37.00
2018-06-18T09:22:08.186Z,36.50
2018-06-18T09:23:05.895Z,36.50
2018-06-18T09:24:06.355Z,36.90
2018-06-18T09:25:08.546Z,36.70
2018-06-18T09:26:06.070Z,36.60
2018-06-18T09:27:10.851Z,36.00
2018-06-18T09:28:06.505Z,36.00
2018-06-18T09:29:06.113Z,36.00
2018-06-18T09:30:05.916Z,36.30
2018-06-18T09:31:08.463Z,36.60
2018-06-18T09:32:06.664Z,36.50
2018-06-18T09:33:06.349Z,35.30
2018-06-18T09:34:08.506Z,36.80
2018-06-18T09:35:11.065Z,36.80
2018-06-18T09:36:08.133Z,37.30
2018-06-18T09:37:05.977Z,37.30
2018-06-18T09:38:05.725Z,36.90
2018-06-18T09:39:06.546Z,37.20
2018-06-18T09:40:14.049Z,37.50
2018-06-18T09:41:05.956Z,37.50
2018-06-18T09:42:05.963Z,37.50
2018-06-18T09:43:05.589Z,36.60
2018-06-18T09:44:06.782Z,36.40
2018-06-18T09:45:07.479Z,36.20
2018-06-18T09:46:07.980Z,36.20
2018-06-18T09:47:06.804Z,36.20
2018-06-18T09:48:06.607Z,36.30
2018-06-18T09:49:11.459Z,34.60
2018-06-18T09:50:11.010Z,34.60
2018-06-18T09:51:06.029Z,8.70
2018-06-18T09:52:06.216Z,34.70
2018-06-18T09:53:08.097Z,35.10
2018-06-18T09:54:05.509Z,35.10
2018-06-18T09:55:06.469Z,35.20
2018-06-18T09:56:08.585Z,33.30
2018-06-18T09:57:06.144Z,33.20
2018-06-18T09:58:10.926Z,34.60
2018-06-18T09:59:06.630Z,34.60
2018-06-18T10:00:06.247Z,34.90
2018-06-18T10:01:06.414Z,34.90
2018-06-18T10:02:05.568Z,34.20
2018-06-18T10:03:08.770Z,34.70
2018-06-18T10:04:08.936Z,35.30
2018-06-18T10:05:11.628Z,35.30
2018-06-18T10:06:06.567Z,35.60
2018-06-18T10:07:11.152Z,35.00
2018-06-18T10:08:05.686Z,35.00
2018-06-18T10:09:05.812Z,34.80
2018-06-18T10:10:08.874Z,35.10
2018-06-18T10:11:06.652Z,35.10
2018-06-18T10:12:06.618Z,35.00
2018-06-18T10:13:07.403Z,34.90
2018-06-18T10:14:06.423Z,34.10
2018-06-18T10:15:05.968Z,33.90
2018-06-18T10:16:06.123Z,34.30
2018-06-18T10:17:09.030Z,34.30
2018-06-18T10:18:06.376Z,34.30
2018-06-18T10:19:06.378Z,34.30
2018-06-18T10:20:06.937Z,34.60
2018-06-18T10:21:08.102Z,34.70
2018-06-18T10:22:05.721Z,34.70
2018-06-18T10:23:06.398Z,35.10
2018-06-18T10:24:10.861Z,35.10
2018-06-18T10:25:06.845Z,35.50
2018-06-18T10:26:05.792Z,35.50
2018-06-18T10:27:09.009Z,35.00
2018-06-18T10:28:05.467Z,35.00
2018-06-18T10:29:06.646Z,34.70
2018-06-18T10:30:06.335Z,34.20
2018-06-18T10:31:06.252Z,34.20
2018-06-18T10:32:06.246Z,34.50
2018-06-18T10:33:05.899Z,34.80
2018-06-18T10:34:08.259Z,34.90
2018-06-18T10:35:06.149Z,34.80
2018-06-18T10:36:06.090Z,34.60
2018-06-18T10:37:05.980Z,35.00
2018-06-18T10:38:06.000Z,34.80
2018-06-18T10:39:08.260Z,34.70
2018-06-18T10:40:10.996Z,34.50
2018-06-18T10:41:06.450Z,34.50
2018-06-18T10:42:06.028Z,34.00
2018-06-18T10:43:05.906Z,33.90
2018-06-18T10:44:05.974Z,34.00
2018-06-18T10:45:06.342Z,34.20
2018-06-18T10:46:13.612Z,32.30
2018-06-18T10:47:11.216Z,32.40
2018-06-18T10:48:06.065Z,32.50
2018-06-18T10:49:14.043Z,33.30
2018-06-18T10:50:08.156Z,33.20
2018-06-18T10:51:11.148Z,33.10
2018-06-18T10:52:06.830Z,33.10
2018-06-18T10:53:06.582Z,32.50
2018-06-18T10:54:06.152Z,33.00
2018-06-18T10:55:08.338Z,32.90
2018-06-18T10:56:05.902Z,32.90
2018-06-18T10:57:13.157Z,32.50
2018-06-18T10:58:11.184Z,32.50
2018-06-18T10:59:10.932Z,32.50
2018-06-18T11:00:06.261Z,32.50
2018-06-18T11:01:11.210Z,31.30
2018-06-18T11:02:13.118Z,31.40
2018-06-18T11:03:05.735Z,31.40
2018-06-18T11:04:07.492Z,31.90
2018-06-18T11:05:05.997Z,31.80
2018-06-18T11:06:08.070Z,32.40
2018-06-18T11:07:05.545Z,32.40
2018-06-18T11:08:05.759Z,32.40
2018-06-18T11:09:05.678Z,32.60
2018-06-18T11:10:10.754Z,32.50
2018-06-18T11:11:06.329Z,32.50
2018-06-18T11:12:06.095Z,32.60
2018-06-18T11:13:08.248Z,32.60
2018-06-18T11:14:06.181Z,32.60
2018-06-18T11:15:06.306Z,32.30
2018-06-18T11:16:11.722Z,30.60
2018-06-18T11:17:07.059Z,30.50
2018-06-18T11:18:06.088Z,30.40
2018-06-18T11:19:05.771Z,30.80
2018-06-18T11:20:08.255Z,31.50
2018-06-18T11:21:05.747Z,31.50
2018-06-18T11:22:06.885Z,31.40
2018-06-18T11:23:11.427Z,31.00
2018-06-18T11:24:11.203Z,31.00
2018-06-18T11:25:09.232Z,31.10
2018-06-18T11:26:06.427Z,31.20
2018-06-18T11:27:08.737Z,31.70
2018-06-18T11:28:06.541Z,31.60
2018-06-18T11:29:05.914Z,32.20
2018-06-18T11:30:08.504Z,32.10
2018-06-18T11:31:06.056Z,32.10
2018-06-18T11:32:08.226Z,31.90
2018-06-18T11:33:06.065Z,31.90
2018-06-18T11:34:05.585Z,31.70
2018-06-18T11:35:06.398Z,32.00
2018-06-18T11:36:06.574Z,32.40
2018-06-18T11:37:13.746Z,32.20
2018-06-18T11:38:11.387Z,32.10
2018-06-18T11:39:05.956Z,31.50
2018-06-18T11:40:06.344Z,31.40
2018-06-18T11:41:08.520Z,31.60
2018-06-18T11:42:06.616Z,31.60
2018-06-18T11:43:06.393Z,31.80
2018-06-18T11:44:06.260Z,31.70
2018-06-18T11:45:08.573Z,31.40
2018-06-18T11:46:06.353Z,31.50
2018-06-18T11:47:06.799Z,32.30
2018-06-18T11:48:09.162Z,32.70
2018-06-18T11:49:09.243Z,32.70
2018-06-18T11:50:06.240Z,32.70
2018-06-18T11:51:18.639Z,32.10
2018-06-18T11:52:06.415Z,32.00
2018-06-18T11:53:08.698Z,32.00
2018-06-18T11:54:05.719Z,32.00
2018-06-18T11:55:06.544Z,31.70
2018-06-18T11:56:06.166Z,31.80
2018-06-18T11:57:05.942Z,31.20
2018-06-18T11:58:05.628Z,31.50
2018-06-18T11:59:06.233Z,31.70
2018-06-18T12:00:05.918Z,31.60
2018-06-18T12:01:06.249Z,31.40
2018-06-18T12:02:08.112Z,30.90
2018-06-18T12:03:05.954Z,30.90
2018-06-18T12:04:05.755Z,31.50
2018-06-18T12:05:06.463Z,31.80
2018-06-18T12:06:05.489Z,32.10
2018-06-18T12:07:07.037Z,31.90
2018-06-18T12:08:10.740Z,31.80
2018-06-18T12:09:06.145Z,31.80
2018-06-18T12:10:08.599Z,31.80
2018-06-18T12:11:06.523Z,31.80
2018-06-18T12:12:05.993Z,32.10
2018-06-18T12:13:05.565Z,32.40
2018-06-18T12:14:06.729Z,32.50
2018-06-18T12:15:09.291Z,32.50
2018-06-18T12:16:06.030Z,32.50
2018-06-18T12:17:06.311Z,32.70
2018-06-18T12:18:10.991Z,32.80
2018-06-18T12:19:05.808Z,32.80
2018-06-18T12:20:05.549Z,32.50
2018-06-18T12:21:05.678Z,31.70
2018-06-18T12:22:08.173Z,32.30
2018-06-18T12:23:05.667Z,32.30
2018-06-18T12:24:05.816Z,32.50
2018-06-18T12:25:08.282Z,32.70
2018-06-18T12:26:05.807Z,32.80
2018-06-18T12:27:05.957Z,32.70
2018-06-18T12:28:06.029Z,32.40
2018-06-18T12:29:08.922Z,32.40
2018-06-18T12:30:06.435Z,32.40
2018-06-18T12:31:05.753Z,32.20
2018-06-18T12:32:06.817Z,32.20
2018-06-18T12:33:06.566Z,32.00
2018-06-18T12:34:08.858Z,32.20
2018-06-18T12:35:08.907Z,32.00
2018-06-18T12:36:09.095Z,31.70
2018-06-18T12:37:08.089Z,31.40
2018-06-18T12:38:05.482Z,31.40
2018-06-18T12:39:11.154Z,30.90
2018-06-18T12:40:05.679Z,30.90
2018-06-18T12:41:05.878Z,30.80
2018-06-18T12:42:07.990Z,30.90
2018-06-18T12:43:07.970Z,30.90
2018-06-18T12:44:05.547Z,30.60
2018-06-18T12:45:06.384Z,30.50
2018-06-18T12:46:06.144Z,30.60
2018-06-18T12:47:08.646Z,30.50
2018-06-18T12:48:08.490Z,30.30
2018-06-18T12:49:12.132Z,30.50
2018-06-18T12:50:05.887Z,30.50
2018-06-18T12:51:07.081Z,30.30
2018-06-18T12:52:08.226Z,30.40